Time;durP1;ratioP1;P1;durP2;ratioP2;P2;SDS_P1;SDS_P2;PMS_P1;PMS_P2;Temp;Humidity;BMP_temperature;BMP_pressure;BME280_temperature;BME280_humidity;BME280_pressure;Samples;Min_cycle;Max_cycle;Signal;HPM_P1;HPM_P2
2021/04/28 00:02:00;;;;;;;35.22;24.10;;;256.60;2252.80;;;;;;5034952;28;20029;-71
2021/04/28 00:04:26;;;;;;;34.60;23.23;;;256.60;2252.80;;;;;;5035424;28;20025;-72
2021/04/28 00:06:52;;;;;;;33.83;24.25;;;256.70;2252.80;;;;;;5035365;28;20037;-71
2021/04/28 00:09:18;;;;;;;34.05;21.92;;;256.80;2252.80;;;;;;5034790;28;20434;-71
2021/04/28 00:11:44;;;;;;;30.35;21.63;;;256.90;2252.80;;;;;;5035071;28;20069;-73
2021/04/28 00:14:10;;;;;;;37.63;24.20;;;281.60;2278.40;;;;;;5035134;28;20039;-71
2021/04/28 00:16:36;;;;;;;45.17;27.70;;;256.90;2252.80;;;;;;5035204;28;20056;-72
2021/04/28 00:19:03;;;;;;;39.65;26.30;;;256.90;2252.80;;;;;;5035198;28;20029;-71
2021/04/28 00:21:29;;;;;;;44.03;27.42;;;256.80;2252.80;;;;;;5035055;28;20403;-72
2021/04/28 00:23:56;;;;;;;29.65;21.75;;;256.80;2252.80;;;;;;5035002;28;20017;-71
2021/04/28 00:26:22;;;;;;;27.98;21.58;;;256.70;2252.80;;;;;;5035081;28;20033;-71
2021/04/28 00:28:48;;;;;;;30.40;20.15;;;256.80;2252.80;;;;;;5034787;28;20365;-72
2021/04/28 00:31:13;;;;;;;30.17;20.45;;;256.80;2252.80;;;;;;5034687;28;20113;-71
2021/04/28 00:33:40;;;;;;;25.15;16.70;;;256.80;2252.80;;;;;;5035062;28;20290;-72
2021/04/28 00:36:06;;;;;;;24.25;16.38;;;281.60;2278.40;;;;;;5033516;28;20462;-70
2021/04/28 00:38:33;;;;;;;26.30;15.95;;;281.80;2278.40;;;;;;5037530;28;20025;-71
2021/04/28 00:41:00;;;;;;;30.95;20.00;;;281.90;2278.40;;;;;;5037135;28;20057;-71
2021/04/28 00:43:27;;;;;;;23.75;18.20;;;281.90;2278.40;;;;;;5036396;28;20021;-71
2021/04/28 00:45:54;;;;;;;26.20;18.60;;;281.80;2278.40;;;;;;5036901;28;20327;-70
2021/04/28 00:48:20;;;;;;;31.63;17.38;;;281.80;2278.40;;;;;;5037141;28;20056;-72
2021/04/28 00:50:47;;;;;;;24.00;16.65;;;281.90;2278.40;;;;;;5036750;28;20029;-70
2021/04/28 00:53:17;;;;;;;25.52;17.48;;;282.00;2278.40;;;;;;5037081;28;20068;-71
2021/04/28 00:55:44;;;;;;;20.10;13.85;;;282.00;2278.40;;;;;;5037073;28;20021;-72
2021/04/28 00:58:10;;;;;;;22.02;15.10;;;282.00;2278.40;;;;;;5036246;28;20021;-71
2021/04/28 01:00:37;;;;;;;16.90;12.75;;;282.10;2278.40;;;;;;5037025;28;20057;-70
2021/04/28 01:03:03;;;;;;;19.42;14.27;;;282.10;2278.40;;;;;;5036885;28;20047;-72
2021/04/28 01:05:29;;;;;;;22.75;14.15;;;282.20;2278.40;;;;;;5040924;28;20029;-72
2021/04/28 01:07:55;;;;;;;15.60;11.77;;;282.30;2278.40;;;;;;5040998;28;20307;-70
2021/04/28 01:10:31;;;;;;;18.45;12.88;;;282.30;2278.40;;;;;;5040576;28;20068;-71
2021/04/28 01:12:58;;;;;;;16.42;13.45;;;282.30;2278.40;;;;;;5040909;28;20108;-72
2021/04/28 01:15:30;;;;;;;14.68;12.70;;;282.40;2278.40;;;;;;5040474;28;20021;-72
2021/04/28 01:17:56;;;;;;;16.00;12.45;;;282.40;2278.40;;;;;;5040525;28;20029;-71
2021/04/28 01:20:24;;;;;;;16.08;12.73;;;282.40;2278.40;;;;;;5040700;28;20116;-72
2021/04/28 01:22:50;;;;;;;16.55;12.07;;;282.30;2278.40;;;;;;5040365;28;20032;-72
2021/04/28 01:25:19;;;;;;;12.73;10.85;;;282.40;2278.40;;;;;;5040657;28;20025;-71
2021/04/28 01:28:02;;;;;;;12.98;10.70;;;282.40;2278.40;;;;;;5040851;28;20025;-72
2021/04/28 01:30:59;;;;;;;11.85;9.80;;;282.40;2278.40;;;;;;5040214;28;20414;-72
2021/04/28 01:33:28;;;;;;;12.90;9.52;;;282.40;2278.40;;;;;;4998389;28;20038;-71
2021/04/28 01:35:57;;;;;;;11.20;8.80;;;282.40;2278.40;;;;;;4998990;28;20495;-70
2021/04/28 01:38:25;;;;;;;14.80;9.85;;;282.40;2278.40;;;;;;4998188;28;20408;-71
2021/04/28 01:40:52;;;;;;;12.25;9.43;;;282.50;2278.40;;;;;;4998696;28;20446;-72
2021/04/28 01:43:18;;;;;;;12.32;9.60;;;282.50;2278.40;;;;;;4998532;28;20034;-71
2021/04/28 01:45:52;;;;;;;15.77;10.27;;;282.50;2278.40;;;;;;4998194;28;20069;-71
2021/04/28 01:48:17;;;;;;;14.18;11.32;;;282.50;2278.40;;;;;;4998111;28;20101;-72
2021/04/28 01:50:48;;;;;;;13.98;9.85;;;282.40;2278.40;;;;;;4998373;28;20038;-72
2021/04/28 01:53:21;;;;;;;11.43;8.05;;;282.40;2278.40;;;;;;4998160;28;20073;-71
2021/04/28 01:55:49;;;;;;;11.43;8.40;;;282.50;2278.40;;;;;;4998681;28;20065;-71
2021/04/28 01:58:16;;;;;;;12.00;8.73;;;282.50;2278.40;;;;;;4998598;28;20030;-72
2021/04/28 02:00:42;;;;;;;11.63;8.45;;;282.50;2278.40;;;;;;4997994;28;20030;-72
2021/04/28 02:03:08;;;;;;;10.77;8.63;;;282.50;2278.40;;;;;;4998224;28;20125;-72
2021/04/28 02:05:34;;;;;;;12.02;9.25;;;282.50;2278.40;;;;;;4998447;28;20117;-72
2021/04/28 02:08:00;;;;;;;11.02;8.85;;;282.50;2278.40;;;;;;4998136;28;20436;-72
2021/04/28 02:10:26;;;;;;;11.73;8.60;;;282.40;2278.40;;;;;;5030044;28;20037;-71
2021/04/28 02:12:53;;;;;;;12.10;9.40;;;282.40;2278.40;;;;;;5039779;28;20025;-72
2021/04/28 02:15:21;;;;;;;11.90;8.80;;;282.40;2278.40;;;;;;5038868;28;20041;-72
2021/04/28 02:17:52;;;;;;;12.77;9.05;;;282.40;2278.40;;;;;;5039924;28;20021;-72
2021/04/28 02:20:19;;;;;;;15.13;9.00;;;282.40;2278.40;;;;;;5039335;28;20029;-71
2021/04/28 02:22:46;;;;;;;10.95;8.38;;;282.50;2278.40;;;;;;5039853;28;20053;-71
2021/04/28 02:25:12;;;;;;;10.80;7.97;;;282.50;2278.40;;;;;;5039510;28;20028;-73
2021/04/28 02:27:38;;;;;;;12.45;8.35;;;282.40;2278.40;;;;;;5039472;28;20033;-71
2021/04/28 02:30:17;;;;;;;11.65;8.00;;;282.50;2278.40;;;;;;5039075;28;20026;-72
2021/04/28 02:32:43;;;;;;;;;;;282.50;2278.40;;;;;;5040186;28;20033;-71
2021/04/28 02:35:10;;;;;;;9.05;6.80;;;282.40;2278.40;;;;;;5038795;28;20290;-72
2021/04/28 02:37:37;;;;;;;11.65;8.02;;;282.40;2278.40;;;;;;5039324;28;20026;-72
2021/04/28 02:40:12;;;;;;;8.95;7.38;;;282.40;2278.40;;;;;;5039521;28;20022;-71
2021/04/28 02:42:43;;;;;;;9.95;6.57;;;282.30;2278.40;;;;;;5038982;28;20429;-71
2021/04/28 02:45:12;;;;;;;11.15;6.63;;;282.30;2278.40;;;;;;5039448;28;20029;-71
2021/04/28 02:47:39;;;;;;;9.20;6.37;;;282.30;2278.40;;;;;;5039467;28;20069;-71
2021/04/28 02:50:10;;;;;;;7.43;5.55;;;282.20;2278.40;;;;;;5038174;28;20352;-71
2021/04/28 02:52:36;;;;;;;8.07;5.75;;;282.10;2278.40;;;;;;5038536;28;20083;-71
2021/04/28 02:55:03;;;;;;;7.75;5.57;;;282.10;2278.40;;;;;;5038858;28;20025;-72
2021/04/28 02:57:30;;;;;;;8.20;5.63;;;282.10;2278.40;;;;;;5038696;28;20049;-70
2021/04/28 02:59:57;;;;;;;10.25;5.85;;;282.00;2278.40;;;;;;5038895;28;20083;-73
2021/04/28 03:02:23;;;;;;;7.40;5.20;;;282.00;2278.40;;;;;;5038747;28;20037;-71
2021/04/28 03:04:50;;;;;;;9.32;5.72;;;281.90;2278.40;;;;;;5039085;28;20292;-72
2021/04/28 03:07:17;;;;;;;7.18;5.05;;;281.90;2278.40;;;;;;5038961;28;20032;-71
2021/04/28 03:09:44;;;;;;;9.25;5.75;;;281.90;2278.40;;;;;;5038283;28;20082;-71
2021/04/28 03:12:14;;;;;;;7.57;5.18;;;281.90;2278.40;;;;;;5038612;28;20036;-71
2021/04/28 03:14:40;;;;;;;7.47;5.25;;;281.80;2278.40;;;;;;5038930;28;20415;-70
2021/04/28 03:17:07;;;;;;;8.43;4.93;;;281.70;2278.40;;;;;;5037652;28;20021;-71
2021/04/28 03:19:34;;;;;;;7.63;5.18;;;281.70;2278.40;;;;;;5038759;28;20030;-71
2021/04/28 03:22:00;;;;;;;7.82;5.60;;;281.60;2278.40;;;;;;5038338;28;20334;-72
2021/04/28 03:24:26;;;;;;;7.55;4.47;;;281.60;2278.40;;;;;;5037938;28;20029;-71
2021/04/28 03:26:57;;;;;;;9.40;4.30;;;281.70;2278.40;;;;;;5037482;28;20021;-72
2021/04/28 03:29:23;;;;;;;7.38;5.03;;;281.60;2278.40;;;;;;5038241;28;20025;-71
2021/04/28 03:31:49;;;;;;;6.85;4.50;;;281.60;2278.40;;;;;;5037592;28;20449;-72
2021/04/28 03:34:15;;;;;;;7.82;4.45;;;281.70;2278.40;;;;;;5037599;28;20026;-70
2021/04/28 03:36:41;;;;;;;6.20;4.13;;;281.60;2278.40;;;;;;5037819;28;20022;-71
2021/04/28 03:39:07;;;;;;;6.22;4.38;;;281.60;2278.40;;;;;;5037485;28;20036;-71
2021/04/28 03:41:32;;;;;;;6.13;4.30;;;281.60;2278.40;;;;;;5037779;28;20030;-71
2021/04/28 03:43:58;;;;;;;5.93;3.70;;;281.60;2278.40;;;;;;5037330;28;20025;-72
2021/04/28 03:46:24;;;;;;;5.47;3.88;;;281.60;2278.40;;;;;;5037417;28;20107;-71
2021/04/28 03:48:50;;;;;;;9.35;3.20;;;281.60;2278.40;;;;;;5037719;28;20025;-72
2021/04/28 03:51:20;;;;;;;4.68;2.75;;;256.90;2252.80;;;;;;5037708;28;20501;-72
2021/04/28 03:53:46;;;;;;;5.50;3.03;;;256.90;2252.80;;;;;;5037938;28;20025;-73
2021/04/28 03:56:11;;;;;;;4.28;2.67;;;256.80;2252.80;;;;;;5037266;28;20026;-72
2021/04/28 03:58:37;;;;;;;5.90;3.33;;;256.80;2252.80;;;;;;5036466;28;20025;-72
2021/04/28 04:01:06;;;;;;;5.22;3.17;;;256.90;2252.80;;;;;;5037293;28;20334;-72
2021/04/28 04:03:32;;;;;;;6.25;2.85;;;281.60;2278.40;;;;;;5036808;28;20071;-71
2021/04/28 04:05:57;;;;;;;5.30;2.67;;;281.60;2278.40;;;;;;5037028;28;20022;-71
2021/04/28 04:08:23;;;;;;;5.13;2.72;;;281.60;2278.40;;;;;;5036638;28;20044;-73
2021/04/28 04:10:49;;;;;;;3.42;2.40;;;281.60;2278.40;;;;;;5037057;28;20026;-72
2021/04/28 04:13:15;;;;;;;4.22;2.50;;;281.60;2278.40;;;;;;5037239;28;20171;-71
2021/04/28 04:15:40;;;;;;;4.15;2.38;;;281.60;2278.40;;;;;;5036948;28;20079;-71
2021/04/28 04:18:06;;;;;;;5.03;2.38;;;281.60;2278.40;;;;;;5037520;28;20201;-72
2021/04/28 04:20:33;;;;;;;4.00;2.17;;;281.60;2278.40;;;;;;5036694;28;20088;-72
2021/04/28 04:22:59;;;;;;;4.18;2.47;;;281.60;2278.40;;;;;;5036993;28;20033;-72
2021/04/28 04:25:25;;;;;;;3.70;1.70;;;281.70;2278.40;;;;;;5037705;28;20083;-71
2021/04/28 04:27:51;;;;;;;3.60;2.13;;;281.60;2278.40;;;;;;5036993;28;20389;-71
2021/04/28 04:30:17;;;;;;;4.65;2.17;;;281.70;2278.40;;;;;;5037134;28;20040;-74
2021/04/28 04:32:43;;;;;;;2.83;1.80;;;281.60;2278.40;;;;;;5036923;28;20029;-70
2021/04/28 04:35:09;;;;;;;4.25;2.40;;;281.60;2278.40;;;;;;5036736;28;20032;-73
2021/04/28 04:37:35;;;;;;;5.72;2.63;;;281.60;2278.40;;;;;;5037032;28;20103;-73
2021/04/28 04:40:01;;;;;;;4.50;2.22;;;281.70;2278.40;;;;;;5036386;28;20057;-73
2021/04/28 04:42:27;;;;;;;3.53;2.22;;;281.70;2278.40;;;;;;5037231;28;20030;-70
2021/04/28 04:44:53;;;;;;;4.53;2.70;;;281.80;2278.40;;;;;;5037132;28;20032;-74
2021/04/28 04:47:19;;;;;;;4.22;2.30;;;281.70;2278.40;;;;;;5036973;28;20351;-74
2021/04/28 04:49:45;;;;;;;6.55;2.55;;;281.80;2278.40;;;;;;5037012;28;20083;-73
2021/04/28 04:52:11;;;;;;;3.25;1.80;;;281.80;2278.40;;;;;;5036617;28;20032;-73
2021/04/28 04:54:37;;;;;;;4.57;2.83;;;281.80;2278.40;;;;;;5036433;28;20076;-72
2021/04/28 04:57:03;;;;;;;6.25;2.30;;;282.00;2278.40;;;;;;5037325;28;20362;-73
2021/04/28 04:59:29;;;;;;;4.18;2.15;;;282.00;2278.40;;;;;;5036713;28;20134;-73
2021/04/28 05:01:55;;;;;;;12.40;7.53;;;282.10;2278.40;;;;;;5036739;28;20454;-74
2021/04/28 05:04:21;;;;;;;4.78;2.47;;;282.10;2278.40;;;;;;5036932;28;20328;-73
2021/04/28 05:06:46;;;;;;;8.63;3.40;;;282.10;2278.40;;;;;;5037106;28;20033;-72
2021/04/28 05:09:13;;;;;;;7.03;2.85;;;282.10;2278.40;;;;;;5036837;28;20025;-73
2021/04/28 05:11:38;;;;;;;5.97;4.30;;;282.20;2278.40;;;;;;5036897;28;20057;-74
2021/04/28 05:14:04;;;;;;;4.85;2.40;;;282.20;2278.40;;;;;;5036455;28;20411;-73
2021/04/28 05:16:33;;;;;;;5.28;3.95;;;282.30;2278.40;;;;;;5036230;28;20026;-73
2021/04/28 05:18:59;;;;;;;3.67;2.20;;;282.20;2278.40;;;;;;5037024;28;20022;-73
2021/04/28 05:21:24;;;;;;;3.85;2.10;;;282.40;2278.40;;;;;;5036177;28;20167;-73
2021/04/28 05:23:50;;;;;;;4.85;2.05;;;282.30;2278.40;;;;;;5036166;28;20067;-73
2021/04/28 05:26:16;;;;;;;5.18;2.08;;;282.30;2278.40;;;;;;5036528;28;20021;-72
2021/04/28 05:28:42;;;;;;;3.35;2.15;;;282.30;2278.40;;;;;;5035876;28;20355;-74
2021/04/28 05:31:08;;;;;;;3.78;2.20;;;282.30;2278.40;;;;;;5035609;28;20032;-72
2021/04/28 05:33:34;;;;;;;4.10;1.92;;;282.40;2278.40;;;;;;5036275;28;20071;-73
2021/04/28 05:35:59;;;;;;;4.85;2.40;;;282.50;2278.40;;;;;;5036377;28;20030;-73
2021/04/28 05:38:25;;;;;;;3.22;1.95;;;282.50;2278.40;;;;;;5036963;28;20025;-72
2021/04/28 05:40:51;;;;;;;5.68;1.88;;;282.50;2278.40;;;;;;5036887;28;20055;-73
2021/04/28 05:43:18;;;;;;;18.17;12.10;;;282.40;2278.40;;;;;;5036620;28;20040;-73
2021/04/28 05:45:43;;;;;;;9.77;5.95;;;282.20;2278.40;;;;;;5036530;28;20076;-73
2021/04/28 05:48:14;;;;;;;10.15;4.90;;;282.40;2278.40;;;;;;5037223;28;20427;-73
2021/04/28 05:50:43;;;;;;;25.33;19.05;;;282.40;2278.40;;;;;;5038496;28;20077;-73
2021/04/28 05:53:09;;;;;;;5.88;2.60;;;282.50;2278.40;;;;;;5040328;28;20475;-72
2021/04/28 05:55:36;;;;;;;3.58;2.15;;;307.20;2304.00;;;;;;5040045;28;20028;-72
2021/04/28 05:58:03;;;;;;;2.67;1.70;;;307.20;2304.00;;;;;;5039509;28;20021;-72
2021/04/28 06:00:31;;;;;;;5.35;2.00;;;307.20;2304.00;;;;;;5040292;28;20044;-72
2021/04/28 06:02:56;;;;;;;5.35;2.85;;;307.30;2304.00;;;;;;5039630;28;20036;-72
2021/04/28 06:05:22;;;;;;;4.18;2.25;;;307.40;2304.00;;;;;;5039929;28;20021;-72
2021/04/28 06:07:48;;;;;;;6.90;1.92;;;307.50;2304.00;;;;;;5040121;28;20033;-73
2021/04/28 06:10:15;;;;;;;5.00;1.88;;;307.40;2304.00;;;;;;5039471;28;20040;-73
2021/04/28 06:12:41;;;;;;;5.60;1.67;;;307.40;2304.00;;;;;;5039806;28;20370;-72
2021/04/28 06:15:09;;;;;;;3.05;1.65;;;307.40;2304.00;;;;;;5039727;28;20461;-73
2021/04/28 06:17:34;;;;;;;4.15;1.50;;;307.40;2304.00;;;;;;5039624;28;20327;-71
2021/04/28 06:20:00;;;;;;;6.30;2.38;;;307.50;2304.00;;;;;;5039379;28;20025;-73
2021/04/28 06:22:26;;;;;;;6.32;3.13;;;307.50;2304.00;;;;;;5039359;28;20033;-72
2021/04/28 06:24:52;;;;;;;2.13;1.20;;;307.50;2304.00;;;;;;5039555;28;20025;-74
2021/04/28 06:27:18;;;;;;;7.90;3.65;;;307.60;2304.00;;;;;;5039183;28;20029;-73
2021/04/28 06:29:44;;;;;;;5.95;1.50;;;307.70;2304.00;;;;;;5039081;28;20040;-72
2021/04/28 06:32:10;;;;;;;9.73;4.32;;;307.80;2304.00;;;;;;5039401;28;20421;-73
2021/04/28 06:34:35;;;;;;;2.72;1.80;;;308.00;2304.00;;;;;;5039213;28;20029;-73
2021/04/28 06:37:01;;;;;;;2.50;1.75;;;307.90;2304.00;;;;;;5039339;28;20473;-72
2021/04/28 06:39:27;;;;;;;2.55;1.60;;;307.80;2304.00;;;;;;5039286;28;20056;-74
2021/04/28 06:41:53;;;;;;;2.95;1.58;;;307.70;2304.00;;;;;;5039294;28;20034;-72
2021/04/28 06:44:19;;;;;;;3.05;1.83;;;307.90;2304.00;;;;;;5039468;28;20327;-71
2021/04/28 06:46:44;;;;;;;3.28;1.67;;;308.00;2304.00;;;;;;5038819;28;20057;-73
2021/04/28 06:49:10;;;;;;;2.90;1.38;;;308.00;2304.00;;;;;;5039314;28;20084;-72
2021/04/28 06:51:36;;;;;;;3.00;2.20;;;307.70;2304.00;;;;;;5039342;28;20032;-73
2021/04/28 06:54:02;;;;;;;2.63;1.55;;;307.90;2304.00;;;;;;5039008;28;20316;-74
2021/04/28 06:56:29;;;;;;;3.28;1.77;;;307.80;2304.00;;;;;;5038944;28;20025;-73
2021/04/28 06:58:55;;;;;;;2.80;1.20;;;307.80;2304.00;;;;;;5038879;28;20458;-72
2021/04/28 07:01:21;;;;;;;4.45;2.15;;;307.70;2304.00;;;;;;5038556;28;20067;-73
2021/04/28 07:03:47;;;;;;;12.07;2.28;;;307.50;2304.00;;;;;;5038833;28;20048;-73
2021/04/28 07:06:14;;;;;;;3.10;1.70;;;307.40;2304.00;;;;;;5038467;28;20343;-72
2021/04/28 07:08:40;;;;;;;3.05;1.75;;;307.20;2304.00;;;;;;5038449;28;20021;-73
2021/04/28 07:11:08;;;;;;;9.23;1.83;;;307.20;2304.00;;;;;;5038870;28;20033;-73
2021/04/28 07:13:34;;;;;;;8.60;1.55;;;307.20;2304.00;;;;;;5038085;28;20029;-73
2021/04/28 07:16:00;;;;;;;3.33;1.60;;;307.20;2304.00;;;;;;5038420;28;20033;-71
2021/04/28 07:18:26;;;;;;;2.92;1.45;;;307.20;2304.00;;;;;;5038543;28;20441;-73
2021/04/28 07:20:52;;;;;;;3.30;1.85;;;307.20;2304.00;;;;;;5038498;28;20034;-73
2021/04/28 07:23:17;;;;;;;4.45;2.30;;;307.20;2304.00;;;;;;5038173;28;20029;-73
2021/04/28 07:25:43;;;;;;;2.53;1.48;;;307.30;2304.00;;;;;;5038620;28;20057;-73
2021/04/28 07:28:09;;;;;;;3.65;2.05;;;307.40;2304.00;;;;;;5038011;28;20075;-72
2021/04/28 07:30:36;;;;;;;2.30;1.60;;;307.40;2304.00;;;;;;5038241;28;20502;-72
2021/04/28 07:33:04;;;;;;;6.82;2.92;;;307.50;2304.00;;;;;;5038509;28;20028;-72
2021/04/28 07:35:30;;;;;;;2.40;1.58;;;307.70;2304.00;;;;;;5037967;28;20032;-74
2021/04/28 07:37:56;;;;;;;2.90;1.70;;;307.80;2304.00;;;;;;5038417;28;20029;-72
2021/04/28 07:40:23;;;;;;;2.88;1.75;;;308.10;2304.00;;;;;;5038119;28;20470;-71
2021/04/28 07:42:50;;;;;;;9.43;2.08;;;333.00;2329.60;;;;;;5037457;28;20025;-72
2021/04/28 07:45:17;;;;;;;3.35;1.52;;;333.30;2329.60;;;;;;5038305;28;20045;-73
2021/04/28 07:47:43;;;;;;;4.50;1.95;;;333.40;2329.60;;;;;;5038273;28;20091;-73
2021/04/28 07:50:10;;;;;;;2.28;1.40;;;333.70;2329.60;;;;;;5037276;28;20038;-73
2021/04/28 07:52:36;;;;;;;3.10;2.00;;;333.70;2329.60;;;;;;5037021;28;20029;-73
2021/04/28 07:55:02;;;;;;;3.25;1.50;;;333.70;2329.60;;;;;;5037722;28;20021;-71
2021/04/28 07:57:29;;;;;;;3.47;1.88;;;333.70;2329.60;;;;;;5036235;28;20108;-72
2021/04/28 07:59:55;;;;;;;3.60;1.90;;;358.60;2329.60;;;;;;5036507;28;20025;-72
2021/04/28 08:02:21;;;;;;;5.15;2.00;;;358.60;2329.60;;;;;;5037402;28;20032;-73
2021/04/28 08:04:47;;;;;;;2.63;1.77;;;358.80;2329.60;;;;;;5036524;28;20407;-71
2021/04/28 08:07:12;;;;;;;3.58;1.98;;;358.80;2329.60;;;;;;5037396;28;20061;-71
2021/04/28 08:09:40;;;;;;;3.25;1.83;;;358.90;2329.60;;;;;;5036791;28;20029;-72
2021/04/28 08:12:07;;;;;;;8.97;1.67;;;358.90;2329.60;;;;;;5035722;28;20025;-72
2021/04/28 08:14:33;;;;;;;4.00;1.70;;;359.10;2329.60;;;;;;5036518;28;20025;-72
2021/04/28 08:16:58;;;;;;;4.88;1.55;;;359.10;2329.60;;;;;;5035815;28;20021;-72
2021/04/28 08:19:25;;;;;;;3.28;2.08;;;359.10;2329.60;;;;;;5035766;28;20338;-71
2021/04/28 08:21:54;;;;;;;4.53;1.80;;;384.20;2329.60;;;;;;5035614;28;20429;-73
2021/04/28 08:24:20;;;;;;;;;;;384.50;2329.60;;;;;;5033457;28;20482;-72
2021/04/28 08:26:46;;;;;;;3.10;1.75;;;384.40;2329.60;;;;;;5036060;28;19932;-72
2021/04/28 08:29:12;;;;;;;3.40;1.67;;;384.40;2329.60;;;;;;5035541;28;20070;-72
2021/04/28 08:31:38;;;;;;;9.95;2.55;;;384.30;2329.60;;;;;;5034700;28;20028;-73
2021/04/28 08:34:04;;;;;;;2.28;1.40;;;384.40;2329.60;;;;;;5035792;28;20021;-73
2021/04/28 08:36:34;;;;;;;4.35;1.85;;;384.30;2329.60;;;;;;5035410;28;20041;-71
2021/04/28 08:39:04;;;;;;;8.45;4.45;;;384.30;2329.60;;;;;;5035670;28;20052;-71
2021/04/28 08:41:30;;;;;;;14.30;2.70;;;384.20;2329.60;;;;;;5035058;28;20389;-71
2021/04/28 08:43:56;;;;;;;5.00;2.28;;;384.40;2329.60;;;;;;5035965;28;20021;-70
2021/04/28 08:46:22;;;;;;;4.88;2.00;;;384.40;2252.80;;;;;;5035148;28;20099;-72
2021/04/28 08:48:48;;;;;;;8.70;3.78;;;384.70;2329.60;;;;;;5035803;28;20029;-70
2021/04/28 08:51:17;;;;;;;5.18;2.95;;;384.70;2252.80;;;;;;5035570;28;20411;-72
2021/04/28 08:53:43;;;;;;;2.72;1.77;;;409.60;2329.60;;;;;;5034835;28;20347;-70
2021/04/28 08:56:09;;;;;;;2.90;2.08;;;409.90;2252.80;;;;;;5035212;28;20095;-70
2021/04/28 08:58:36;;;;;;;3.75;2.63;;;410.10;2201.60;;;;;;5034941;28;20036;-72
2021/04/28 09:01:03;;;;;;;4.32;2.28;;;410.30;2201.60;;;;;;5034756;28;20104;-71
2021/04/28 09:03:42;;;;;;;3.50;1.90;;;435.20;2201.60;;;;;;5035349;28;20049;-72
2021/04/28 09:06:33;;;;;;;2.70;1.65;;;410.50;2124.80;;;;;;5034454;28;20441;-71
2021/04/28 09:09:07;;;;;;;2.58;1.60;;;435.20;2150.40;;;;;;5036948;28;20026;-72
2021/04/28 09:11:34;;;;;;;3.05;1.52;;;410.20;2073.60;;;;;;5036753;28;20446;-71
2021/04/28 09:14:20;;;;;;;22.48;12.32;;;410.40;2099.20;;;;;;5035058;28;20026;-72
2021/04/28 09:16:55;;;;;;;6.00;2.63;;;410.40;2099.20;;;;;;5036735;28;20025;-72
2021/04/28 09:19:32;;;;;;;25.65;14.65;;;410.10;2022.40;;;;;;5036843;28;20415;-71
2021/04/28 09:22:04;;;;;;;28.50;18.05;;;410.10;2124.80;;;;;;5036170;28;20029;-72
2021/04/28 09:24:35;;;;;;;8.48;5.15;;;410.10;2073.60;;;;;;5037098;28;20025;-72
2021/04/28 09:27:02;;;;;;;7.72;4.32;;;410.30;2073.60;;;;;;5040250;28;20407;-72
2021/04/28 09:29:31;;;;;;;17.70;12.25;;;410.30;2073.60;;;;;;5036612;28;20461;-71
2021/04/28 09:32:08;;;;;;;22.02;13.35;;;435.20;2048.00;;;;;;5038656;28;20104;-71
2021/04/28 09:34:36;;;;;;;9.05;7.13;;;435.30;2099.20;;;;;;5036541;28;20104;-71
2021/04/28 09:37:07;;;;;;;7.78;4.43;;;435.40;2022.40;;;;;;5038682;28;20021;-72
2021/04/28 09:39:42;;;;;;;8.57;6.75;;;435.40;2022.40;;;;;;5036857;28;20048;-70
2021/04/28 09:42:09;;;;;;;6.57;5.60;;;435.50;2022.40;;;;;;5039159;28;20028;-71
2021/04/28 09:44:37;;;;;;;8.32;6.65;;;435.50;1996.80;;;;;;5039831;28;20334;-71
2021/04/28 09:47:14;;;;;;;5.77;4.80;;;435.60;1996.80;;;;;;5039854;28;20042;-72
2021/04/28 09:49:45;;;;;;;6.18;4.43;;;435.60;1996.80;;;;;;5039500;28;20052;-71
2021/04/28 09:52:12;;;;;;;5.05;3.50;;;435.90;2022.40;;;;;;5039974;28;20048;-71
2021/04/28 09:54:38;;;;;;;10.13;7.63;;;435.90;1996.80;;;;;;5040228;28;20075;-71
2021/04/28 09:57:04;;;;;;;19.35;14.55;;;436.00;1971.20;;;;;;5039976;28;20406;-72
2021/04/28 09:59:42;;;;;;;16.73;11.93;;;435.70;1945.60;;;;;;5039968;28;20029;-71
2021/04/28 10:02:10;;;;;;;18.80;13.38;;;435.80;1945.60;;;;;;5039691;28;20418;-71
2021/04/28 10:04:36;;;;;;;14.48;9.77;;;435.90;1971.20;;;;;;5039475;28;20427;-72
2021/04/28 10:07:02;;;;;;;14.95;9.70;;;435.80;1920.00;;;;;;5039227;28;20415;-70
2021/04/28 10:09:34;;;;;;;9.07;6.70;;;436.00;1920.00;;;;;;5039092;28;20037;-72
2021/04/28 10:12:13;;;;;;;7.07;6.38;;;436.10;1945.60;;;;;;5039522;28;20029;-71
2021/04/28 10:14:40;;;;;;;3.63;2.95;;;436.00;1894.40;;;;;;5039611;28;20026;-72
2021/04/28 10:17:08;;;;;;;7.93;6.50;;;436.00;1945.60;;;;;;5039060;28;20025;-73
2021/04/28 10:19:36;;;;;;;7.22;4.93;;;436.10;1920.00;;;;;;5038690;28;20128;-70
2021/04/28 10:22:04;;;;;;;3.55;2.40;;;460.80;1945.60;;;;;;5038738;28;20053;-72
2021/04/28 10:24:31;;;;;;;4.70;3.47;;;460.80;1920.00;;;;;;5039172;28;20026;-72
2021/04/28 10:26:57;;;;;;;5.07;3.78;;;436.10;1894.40;;;;;;5039563;28;20026;-72
2021/04/28 10:29:24;;;;;;;8.02;3.80;;;460.80;1894.40;;;;;;5039409;28;20056;-71
2021/04/28 10:31:52;;;;;;;8.85;2.60;;;436.00;1868.80;;;;;;5038342;28;20383;-71
2021/04/28 10:34:51;;;;;;;3.70;2.80;;;435.90;1894.40;;;;;;5038678;28;20029;-72
2021/04/28 10:37:20;;;;;;;8.45;3.58;;;436.00;1894.40;;;;;;5029495;28;20366;-71
2021/04/28 10:39:49;;;;;;;9.55;3.10;;;436.10;1894.40;;;;;;5038558;28;20033;-73
2021/04/28 10:42:34;;;;;;;17.30;2.90;;;460.80;1920.00;;;;;;5038862;28;20037;-72
2021/04/28 10:45:00;;;;;;;8.13;2.65;;;460.80;1920.00;;;;;;5038323;28;20056;-70
2021/04/28 10:47:38;;;;;;;19.92;4.30;;;460.80;1894.40;;;;;;5038785;28;20050;-73
2021/04/28 10:50:19;;;;;;;8.32;2.70;;;460.80;1894.40;;;;;;5038995;28;20374;-70
2021/04/28 10:52:58;;;;;;;13.98;6.57;;;461.00;1894.40;;;;;;5037303;28;20330;-71
2021/04/28 10:55:44;;;;;;;11.93;4.70;;;461.30;1868.80;;;;;;5020377;28;20381;-71
2021/04/28 10:58:29;;;;;;;10.27;4.25;;;461.50;1817.60;;;;;;5038512;28;20028;-70
2021/04/28 11:01:01;;;;;;;3.80;2.55;;;461.70;1817.60;;;;;;5038752;28;20036;-69
2021/04/28 11:03:33;;;;;;;6.75;2.50;;;461.70;1792.00;;;;;;5038627;28;20023;-70
2021/04/28 11:06:17;;;;;;;7.82;3.10;;;486.90;1740.80;;;;;;5038753;28;20029;-71
2021/04/28 11:09:06;;;;;;;8.70;2.63;;;512.30;1689.60;;;;;;5036861;28;20032;-71
2021/04/28 11:14:18;;;;;;;9.95;2.72;;;487.30;1689.60;;;;;;5037728;28;19909;-72
2021/04/28 11:16:45;;;;;;;3.78;1.85;;;512.20;1715.20;;;;;;5037631;28;20066;-71
2021/04/28 11:19:16;;;;;;;6.13;2.38;;;512.20;1638.40;;;;;;5037695;28;20079;-70
2021/04/28 11:21:45;;;;;;;4.88;2.60;;;512.30;1638.40;;;;;;5037837;28;20026;-70
2021/04/28 11:24:17;;;;;;;5.63;2.92;;;512.40;1612.80;;;;;;5037072;28;20056;-70
2021/04/28 11:26:48;;;;;;;11.80;9.32;;;512.40;1612.80;;;;;;5037261;28;20346;-72
2021/04/28 11:29:15;;;;;;;15.23;7.28;;;537.90;1561.60;;;;;;5037684;28;20116;-70
2021/04/28 11:31:55;;;;;;;6.03;3.78;;;538.00;1561.60;;;;;;5037694;28;20056;-72
2021/04/28 11:34:23;;;;;;;4.15;2.30;;;538.00;1536.00;;;;;;5038103;28;20026;-73
2021/04/28 11:36:54;;;;;;;4.20;2.90;;;537.60;1561.60;;;;;;5037843;28;20117;-70
2021/04/28 11:39:43;;;;;;;3.63;1.95;;;512.80;1510.40;;;;;;5037448;28;20505;-72
2021/04/28 11:42:15;;;;;;;7.97;3.40;;;512.30;1536.00;;;;;;5037953;28;20075;-72
2021/04/28 11:44:48;;;;;;;4.68;2.20;;;512.70;1536.00;;;;;;5037723;28;20036;-71
2021/04/28 11:47:25;;;;;;;8.77;2.60;;;512.80;1561.60;;;;;;5036471;28;20119;-72
2021/04/28 11:49:57;;;;;;;11.20;3.60;;;512.90;1484.80;;;;;;5037355;28;20033;-71
2021/04/28 11:52:25;;;;;;;8.23;2.25;;;512.40;1510.40;;;;;;5037359;28;20021;-69
2021/04/28 11:54:56;;;;;;;9.00;2.93;;;512.00;1536.00;;;;;;5036733;28;20026;-71
2021/04/28 11:57:32;;;;;;;12.63;3.75;;;512.30;1536.00;;;;;;5036010;28;20411;-72
2021/04/28 12:00:10;;;;;;;9.20;4.85;;;512.70;1510.40;;;;;;5036039;28;20025;-72
2021/04/28 12:02:36;;;;;;;;;;;487.30;1536.00;;;;;;5036399;28;20056;-71
2021/04/28 12:05:03;;;;;;;4.60;2.53;;;512.80;1484.80;;;;;;5035928;28;20336;-72
2021/04/28 12:07:31;;;;;;;8.77;5.80;;;512.40;1484.80;;;;;;5036556;28;20021;-72
2021/04/28 12:09:57;;;;;;;4.67;1.93;;;537.60;1484.80;;;;;;5036211;28;20493;-72
2021/04/28 12:12:27;;;;;;;9.02;2.35;;;512.80;1459.20;;;;;;5036330;28;20255;-72
2021/04/28 12:15:05;;;;;;;2.97;2.05;;;487.20;1510.40;;;;;;5035904;28;20027;-72
2021/04/28 12:17:33;;;;;;;3.75;1.70;;;486.70;1587.20;;;;;;5035818;28;20033;-71
2021/04/28 12:19:59;;;;;;;5.18;2.28;;;486.40;1638.40;;;;;;5035853;28;20029;-71
2021/04/28 12:22:29;;;;;;;6.45;2.42;;;461.20;1638.40;;;;;;5035214;28;20030;-71